Time;durP1;ratioP1;P1;durP2;ratioP2;P2;SDS_P1;SDS_P2;PMS_P1;PMS_P2;Temp;Humidity;BMP_temperature;BMP_pressure;BME280_temperature;BME280_humidity;BME280_pressure;Samples;Min_cycle;Max_cycle;Signal;HPM_P1;HPM_P2
2023/01/09 00:01:42;;;;;;;3.78;2.90;;;8.80;90.10;;;;;;4993320;28;20048;-61
2023/01/09 00:04:08;;;;;;;3.20;2.90;;;8.80;90.10;;;;;;4997401;28;20060;-62
2023/01/09 00:06:34;;;;;;;4.55;3.08;;;8.80;90.00;;;;;;4998842;28;20454;-62
2023/01/09 00:09:00;;;;;;;4.60;3.22;;;8.80;90.00;;;;;;4999157;28;20116;-62
2023/01/09 00:11:26;;;;;;;3.50;3.20;;;8.80;90.00;;;;;;5003084;28;20076;-63
2023/01/09 00:13:52;;;;;;;3.80;3.40;;;8.80;89.90;;;;;;4999205;28;20409;-63
2023/01/09 00:16:17;;;;;;;3.83;3.45;;;8.80;89.90;;;;;;4999478;28;20124;-62
2023/01/09 00:18:43;;;;;;;4.72;3.70;;;8.80;89.90;;;;;;4979623;28;20034;-62
2023/01/09 00:21:10;;;;;;;4.25;3.60;;;8.80;89.90;;;;;;4995947;28;20061;-62
2023/01/09 00:23:36;;;;;;;4.90;3.65;;;8.80;90.00;;;;;;4997091;28;20390;-62
2023/01/09 00:26:15;;;;;;;4.07;3.58;;;8.80;90.00;;;;;;4997349;28;20033;-62
2023/01/09 00:28:41;;;;;;;4.07;3.67;;;8.80;90.00;;;;;;4994246;28;20113;-62
2023/01/09 00:31:08;;;;;;;3.70;3.40;;;8.80;90.00;;;;;;4995598;28;20056;-62
2023/01/09 00:33:45;;;;;;;4.72;3.67;;;8.80;90.00;;;;;;4997795;28;20034;-62
2023/01/09 00:36:11;;;;;;;4.43;3.72;;;8.80;90.10;;;;;;4997584;28;20065;-59
2023/01/09 00:38:38;;;;;;;4.13;3.30;;;8.80;90.00;;;;;;4993939;28;20034;-60
2023/01/09 00:41:05;;;;;;;3.80;3.50;;;8.80;90.00;;;;;;4991627;28;20054;-62
2023/01/09 00:43:34;;;;;;;4.18;3.50;;;8.80;90.00;;;;;;4993393;28;20393;-61
2023/01/09 00:46:02;;;;;;;4.10;3.70;;;8.80;90.00;;;;;;4995906;28;20041;-61
2023/01/09 00:48:28;;;;;;;4.20;3.80;;;8.80;89.90;;;;;;4993896;28;20033;-61
2023/01/09 00:50:57;;;;;;;3.92;3.53;;;8.80;89.90;;;;;;4994912;28;20029;-62
2023/01/09 00:53:26;;;;;;;5.18;4.00;;;8.80;89.90;;;;;;4996202;28;20041;-62
2023/01/09 00:55:52;;;;;;;4.93;4.43;;;8.90;89.90;;;;;;4993151;28;20319;-62
2023/01/09 00:58:18;;;;;;;4.57;4.18;;;8.80;89.70;;;;;;4991616;28;20058;-62
2023/01/09 01:00:44;;;;;;;4.22;3.83;;;8.70;89.70;;;;;;4992113;28;20116;-61
2023/01/09 01:03:10;;;;;;;4.70;4.30;;;8.70;89.70;;;;;;4992152;28;20509;-59
2023/01/09 01:08:20;;;;;;;5.03;4.50;;;8.70;89.90;;;;;;4992472;28;20049;-61
2023/01/09 01:10:47;;;;;;;4.68;4.28;;;8.70;89.90;;;;;;4994870;28;20094;-61
2023/01/09 01:13:13;;;;;;;4.72;4.30;;;8.70;89.90;;;;;;4993222;28;20065;-61
2023/01/09 01:15:40;;;;;;;5.07;4.32;;;8.70;89.80;;;;;;4991851;28;20121;-60
2023/01/09 01:18:05;;;;;;;4.55;4.15;;;8.70;89.80;;;;;;4993228;28;20088;-62
2023/01/09 01:20:31;;;;;;;5.18;4.38;;;8.80;89.80;;;;;;4992165;28;20034;-62
2023/01/09 01:22:57;;;;;;;4.10;3.80;;;8.80;89.80;;;;;;4990395;28;20148;-61
2023/01/09 01:25:22;;;;;;;3.90;3.50;;;8.80;89.70;;;;;;4977573;28;20689;-61
2023/01/09 01:27:48;;;;;;;4.50;3.25;;;8.80;89.90;;;;;;4998682;28;20073;-60
2023/01/09 01:30:15;;;;;;;3.67;3.38;;;8.80;89.90;;;;;;4993754;28;20038;-62
2023/01/09 01:32:41;;;;;;;2.38;2.17;;;8.80;89.90;;;;;;4993382;28;20088;-61
2023/01/09 01:35:08;;;;;;;2.85;2.55;;;8.80;89.90;;;;;;4994798;28;20038;-60
2023/01/09 01:37:35;;;;;;;2.22;2.03;;;8.80;89.90;;;;;;4991661;28;20041;-62
2023/01/09 01:40:00;;;;;;;2.42;2.22;;;8.80;89.90;;;;;;4993092;28;20042;-62
2023/01/09 01:42:26;;;;;;;3.10;2.80;;;8.80;89.90;;;;;;4995004;28;20046;-62
2023/01/09 01:45:08;;;;;;;2.78;2.58;;;8.90;90.00;;;;;;4991926;28;20470;-62
2023/01/09 01:47:33;;;;;;;2.90;2.70;;;8.90;90.00;;;;;;4992307;28;20041;-62
2023/01/09 01:50:03;;;;;;;3.10;2.80;;;8.80;89.80;;;;;;4991130;28;20517;-62
2023/01/09 01:52:31;;;;;;;2.67;2.45;;;8.90;89.90;;;;;;4992260;28;20537;-62
2023/01/09 01:54:56;;;;;;;2.78;2.58;;;8.90;89.80;;;;;;4992660;28;20044;-62
2023/01/09 01:57:23;;;;;;;2.33;2.13;;;8.90;89.70;;;;;;4993304;28;20046;-62
2023/01/09 01:59:52;;;;;;;2.22;2.03;;;8.80;89.70;;;;;;4994791;28;20116;-62
2023/01/09 02:02:21;;;;;;;2.40;2.13;;;8.90;89.70;;;;;;4997426;28;20044;-61
2023/01/09 02:04:50;;;;;;;2.58;2.15;;;8.80;89.50;;;;;;4993524;28;20092;-62
2023/01/09 02:07:15;;;;;;;2.30;2.10;;;8.80;89.50;;;;;;4994204;28;20025;-61
2023/01/09 02:09:43;;;;;;;1.92;1.83;;;8.80;89.50;;;;;;4994383;28;20116;-61
2023/01/09 02:12:24;;;;;;;2.22;1.85;;;8.80;89.60;;;;;;4996086;28;20409;-62
2023/01/09 02:15:04;;;;;;;1.83;1.70;;;8.80;89.70;;;;;;4992344;28;20038;-62
2023/01/09 02:17:52;;;;;;;3.08;1.45;;;8.80;89.60;;;;;;4997885;28;20281;-61
2023/01/09 02:20:59;;;;;;;1.75;1.45;;;8.80;89.70;;;;;;4994712;28;20038;-62
2023/01/09 02:23:42;;;;;;;1.92;1.65;;;8.80;89.70;;;;;;4964122;28;20097;-60
2023/01/09 02:26:52;;;;;;;1.90;1.60;;;8.80;89.50;;;;;;4996845;28;20033;-61
2023/01/09 02:29:42;;;;;;;1.60;1.50;;;8.90;89.60;;;;;;4995969;28;20044;-59
2023/01/09 02:32:17;;;;;;;2.00;1.85;;;8.80;89.50;;;;;;4994050;28;20026;-60
2023/01/09 02:35:03;;;;;;;2.15;2.00;;;8.90;89.40;;;;;;4998459;28;20330;-62
2023/01/09 02:37:42;;;;;;;3.20;2.33;;;8.80;89.50;;;;;;4996505;28;20084;-62
2023/01/09 02:40:26;;;;;;;3.53;3.20;;;8.80;89.30;;;;;;4995884;28;20038;-62
2023/01/09 02:42:54;;;;;;;4.55;4.07;;;8.80;89.30;;;;;;4997454;28;20104;-61
2023/01/09 02:45:20;;;;;;;5.68;4.68;;;8.80;89.20;;;;;;4997341;28;20046;-62
2023/01/09 02:47:46;;;;;;;6.25;5.25;;;8.80;89.10;;;;;;4996423;28;20092;-61
2023/01/09 02:50:35;;;;;;;7.22;6.03;;;8.70;89.00;;;;;;4995763;28;20056;-61
2023/01/09 02:53:41;;;;;;;6.10;5.50;;;8.70;89.20;;;;;;4997063;28;20452;-61
2023/01/09 02:56:26;;;;;;;;;;;8.60;89.20;;;;;;4995744;28;20201;-60
2023/01/09 02:59:07;;;;;;;6.85;6.00;;;8.60;89.30;;;;;;4995816;28;20260;-62
2023/01/09 03:01:51;;;;;;;7.72;6.75;;;8.60;88.90;;;;;;4999615;28;20077;-61
2023/01/09 03:04:38;;;;;;;7.90;6.43;;;8.50;89.30;;;;;;4996310;28;20042;-60
2023/01/09 03:07:33;;;;;;;8.27;7.13;;;8.40;89.50;;;;;;4996798;28;20030;-61
2023/01/09 03:10:02;;;;;;;;;;;8.40;89.90;;;;;;4989429;28;20044;-61
2023/01/09 03:12:31;;;;;;;8.32;6.68;;;8.40;90.00;;;;;;4996521;28;19914;-60
2023/01/09 03:15:00;;;;;;;8.27;7.03;;;8.40;89.50;;;;;;4999617;28;20048;-61
2023/01/09 03:17:31;;;;;;;8.40;7.13;;;8.30;89.70;;;;;;4997615;28;21491;-61
2023/01/09 03:19:57;;;;;;;8.02;6.80;;;8.30;90.00;;;;;;4999142;28;20669;-61
2023/01/09 03:22:23;;;;;;;7.97;6.88;;;8.30;90.00;;;;;;4997825;28;20038;-61
2023/01/09 03:24:49;;;;;;;7.78;6.85;;;8.30;90.00;;;;;;4996981;28;20038;-61
2023/01/09 03:27:15;;;;;;;10.07;6.70;;;8.30;90.40;;;;;;4995669;28;20909;-61
2023/01/09 03:29:40;;;;;;;8.20;6.75;;;8.30;90.10;;;;;;4998598;28;20118;-61
2023/01/09 03:32:06;;;;;;;7.20;6.47;;;8.30;90.10;;;;;;4995102;28;20501;-61
2023/01/09 03:34:31;;;;;;;6.85;6.03;;;8.40;90.20;;;;;;4999543;28;20401;-61
2023/01/09 03:36:57;;;;;;;6.55;5.78;;;8.40;90.20;;;;;;4997091;28;20045;-61
2023/01/09 03:39:22;;;;;;;7.05;5.55;;;8.40;90.20;;;;;;4998164;28;20053;-62
2023/01/09 03:41:48;;;;;;;6.47;5.32;;;8.40;90.20;;;;;;4995038;28;20053;-62
2023/01/09 03:44:14;;;;;;;6.25;4.95;;;8.40;90.20;;;;;;4997487;28;20038;-61
2023/01/09 03:46:39;;;;;;;5.00;4.50;;;8.50;90.20;;;;;;4994386;28;20026;-61
2023/01/09 03:49:05;;;;;;;4.53;4.10;;;8.50;90.20;;;;;;4995680;28;20033;-61
2023/01/09 03:51:31;;;;;;;3.65;3.35;;;8.60;90.20;;;;;;4995016;28;20034;-61
2023/01/09 03:53:56;;;;;;;2.55;2.35;;;8.60;90.20;;;;;;4996179;28;20342;-61
2023/01/09 03:56:22;;;;;;;2.90;2.28;;;8.60;90.20;;;;;;4980641;28;20370;-60
2023/01/09 03:58:49;;;;;;;1.98;1.63;;;8.60;90.20;;;;;;4995305;28;20096;-61
2023/01/09 04:01:14;;;;;;;1.45;1.30;;;8.60;90.10;;;;;;4995836;28;20489;-60
2023/01/09 04:03:40;;;;;;;1.25;1.10;;;8.60;90.10;;;;;;4999441;28;20034;-61
2023/01/09 04:06:06;;;;;;;1.05;1.00;;;8.70;90.10;;;;;;4996864;28;20041;-62
2023/01/09 04:08:32;;;;;;;1.13;0.90;;;8.70;90.10;;;;;;4999550;28;20033;-62
2023/01/09 04:10:57;;;;;;;0.80;0.80;;;8.70;90.10;;;;;;4999019;28;20080;-62
2023/01/09 04:13:23;;;;;;;0.95;0.90;;;8.70;90.00;;;;;;4993978;28;20040;-62
2023/01/09 04:15:49;;;;;;;0.90;0.90;;;8.70;90.00;;;;;;4996490;28;20026;-62
2023/01/09 04:18:15;;;;;;;0.80;0.80;;;8.70;90.40;;;;;;4997239;28;20363;-61
2023/01/09 04:20:41;;;;;;;0.77;0.77;;;8.70;90.00;;;;;;4997048;28;20454;-61
2023/01/09 04:23:07;;;;;;;0.70;0.70;;;8.80;90.00;;;;;;4993789;28;20038;-62
2023/01/09 04:25:33;;;;;;;0.50;0.50;;;8.80;89.90;;;;;;4981266;28;20069;-62
2023/01/09 04:27:58;;;;;;;0.80;0.65;;;8.80;89.70;;;;;;4992942;28;20111;-61
2023/01/09 04:30:24;;;;;;;0.40;0.40;;;8.80;89.60;;;;;;4995062;28;20502;-62
2023/01/09 04:32:50;;;;;;;0.40;0.40;;;8.80;89.40;;;;;;4995676;28;20048;-61
2023/01/09 04:35:17;;;;;;;0.30;0.30;;;8.80;89.20;;;;;;4995898;28;20117;-60
2023/01/09 04:37:42;;;;;;;0.30;0.30;;;8.80;89.00;;;;;;4995588;28;20042;-60
2023/01/09 04:40:11;;;;;;;37.85;13.00;;;8.80;88.90;;;;;;4994855;28;20038;-61
2023/01/09 04:42:38;;;;;;;3.97;2.65;;;8.80;88.80;;;;;;4993181;28;20038;-61
2023/01/09 04:45:05;;;;;;;7.97;5.57;;;8.80;88.60;;;;;;4993514;28;20058;-59
2023/01/09 04:47:31;;;;;;;0.95;0.80;;;8.80;88.50;;;;;;4994140;28;20033;-59
2023/01/09 04:49:57;;;;;;;1.45;0.80;;;8.70;88.30;;;;;;4995236;28;20030;-61
2023/01/09 04:52:23;;;;;;;1.02;0.90;;;8.70;88.30;;;;;;4995689;28;20454;-59
2023/01/09 04:54:49;;;;;;;1.30;0.93;;;8.70;88.00;;;;;;4992970;28;20160;-61
2023/01/09 04:57:15;;;;;;;0.60;0.60;;;8.70;87.90;;;;;;4994255;28;20046;-60
2023/01/09 04:59:40;;;;;;;0.47;0.47;;;8.70;87.80;;;;;;4994828;28;20430;-60
2023/01/09 05:02:06;;;;;;;1.25;0.80;;;8.60;87.40;;;;;;4993298;28;20039;-60
2023/01/09 05:04:32;;;;;;;0.35;0.35;;;8.60;87.40;;;;;;4993417;28;20568;-60
2023/01/09 05:06:57;;;;;;;0.40;0.30;;;8.70;87.40;;;;;;4996912;28;20045;-60
2023/01/09 05:09:23;;;;;;;0.60;0.30;;;8.60;87.30;;;;;;4996907;28;20374;-60
2023/01/09 05:11:49;;;;;;;0.30;0.20;;;8.60;87.10;;;;;;4997542;28;20034;-61
2023/01/09 05:14:15;;;;;;;0.28;0.20;;;8.50;86.90;;;;;;4993332;28;20385;-61
2023/01/09 05:16:40;;;;;;;0.40;0.10;;;8.50;86.70;;;;;;4994202;28;20029;-61
2023/01/09 05:19:06;;;;;;;0.30;0.20;;;8.40;86.70;;;;;;4995183;28;20049;-59
2023/01/09 05:21:31;;;;;;;0.15;0.10;;;8.40;87.60;;;;;;4996929;28;20125;-61
2023/01/09 05:23:57;;;;;;;0.30;0.20;;;8.40;86.90;;;;;;4998182;28;20052;-61
2023/01/09 05:26:23;;;;;;;0.20;0.20;;;8.40;86.90;;;;;;4997834;28;20057;-60
2023/01/09 05:28:57;;;;;;;0.20;0.20;;;8.30;86.80;;;;;;4997138;28;20121;-60
2023/01/09 05:31:25;;;;;;;1.20;0.70;;;8.30;86.80;;;;;;4998212;28;20145;-60
2023/01/09 05:33:51;;;;;;;0.88;0.40;;;8.30;86.90;;;;;;4998849;28;20038;-62
2023/01/09 05:36:18;;;;;;;0.93;0.85;;;8.30;87.00;;;;;;4997821;28;20026;-62
2023/01/09 05:38:43;;;;;;;0.60;0.50;;;8.20;87.00;;;;;;4997523;28;20136;-62
2023/01/09 05:41:09;;;;;;;0.80;0.60;;;8.20;86.80;;;;;;4997794;28;20464;-61
2023/01/09 05:43:35;;;;;;;0.65;0.40;;;8.20;87.00;;;;;;4997952;28;20042;-61
2023/01/09 05:46:01;;;;;;;0.45;0.30;;;8.20;87.10;;;;;;4998338;28;20037;-62
2023/01/09 05:48:26;;;;;;;0.22;0.20;;;8.20;87.20;;;;;;4997123;28;20036;-60
2023/01/09 05:50:52;;;;;;;0.38;0.20;;;8.20;87.10;;;;;;4998715;28;20035;-62
2023/01/09 05:53:17;;;;;;;1.48;0.20;;;8.20;85.60;;;;;;4998015;28;20034;-63
2023/01/09 05:55:44;;;;;;;1.15;0.10;;;8.10;83.20;;;;;;4998112;28;20030;-62
2023/01/09 05:58:09;;;;;;;0.93;0.10;;;8.00;82.70;;;;;;4997925;28;20046;-62
2023/01/09 06:00:35;;;;;;;0.22;0.20;;;7.80;82.50;;;;;;4997464;28;20498;-63
2023/01/09 06:03:00;;;;;;;1.15;0.40;;;7.60;83.10;;;;;;4998178;28;20429;-63
2023/01/09 06:05:26;;;;;;;1.48;0.30;;;7.40;84.10;;;;;;4997547;28;20041;-63
2023/01/09 06:07:51;;;;;;;3.40;0.40;;;7.20;84.70;;;;;;4998419;28;20034;-62
2023/01/09 06:10:17;;;;;;;0.55;0.20;;;7.10;85.50;;;;;;4988639;28;20034;-62
2023/01/09 06:12:47;;;;;;;0.20;0.20;;;7.00;86.10;;;;;;4997396;28;20054;-62
2023/01/09 06:15:14;;;;;;;0.75;0.30;;;7.00;86.60;;;;;;4998170;28;20113;-62
2023/01/09 06:17:40;;;;;;;0.20;0.20;;;6.90;87.00;;;;;;4997762;28;20572;-61
2023/01/09 06:20:06;;;;;;;0.28;0.20;;;6.80;87.20;;;;;;4995850;28;20027;-62
2023/01/09 06:22:32;;;;;;;1.23;0.20;;;6.80;87.50;;;;;;4995448;28;20437;-62
2023/01/09 06:24:57;;;;;;;0.35;0.28;;;6.80;87.90;;;;;;4997483;28;20476;-61
2023/01/09 06:27:23;;;;;;;0.40;0.40;;;6.80;88.20;;;;;;4996466;28;20048;-62
2023/01/09 06:29:48;;;;;;;0.40;0.20;;;6.80;88.30;;;;;;4995550;28;20576;-63
2023/01/09 06:32:14;;;;;;;0.82;0.20;;;6.70;88.10;;;;;;4995989;28;20033;-61
2023/01/09 06:34:40;;;;;;;0.32;0.30;;;6.80;88.30;;;;;;4996805;28;20449;-60
2023/01/09 06:37:05;;;;;;;0.60;0.30;;;6.80;88.40;;;;;;4996530;28;20213;-59
2023/01/09 06:39:31;;;;;;;1.40;0.70;;;6.80;88.40;;;;;;4995004;28;20088;-60
2023/01/09 06:41:56;;;;;;;1.90;0.90;;;6.70;88.50;;;;;;4996521;28;20038;-62
2023/01/09 06:44:22;;;;;;;8.45;2.30;;;6.80;88.80;;;;;;4995663;28;20505;-61
2023/01/09 06:46:47;;;;;;;3.22;1.63;;;6.80;89.00;;;;;;4996224;28;20030;-60
2023/01/09 06:49:13;;;;;;;4.07;1.63;;;6.70;89.20;;;;;;4996933;28;20450;-61
2023/01/09 06:51:39;;;;;;;1.75;1.00;;;6.80;89.30;;;;;;4983769;28;20453;-59
2023/01/09 06:54:04;;;;;;;0.98;0.50;;;6.80;89.30;;;;;;4995540;28;20048;-62
2023/01/09 06:56:30;;;;;;;0.55;0.47;;;6.80;89.40;;;;;;4996346;28;20038;-61
2023/01/09 06:58:55;;;;;;;0.45;0.30;;;6.90;89.50;;;;;;4996782;28;20037;-61
2023/01/09 07:01:21;;;;;;;1.30;0.47;;;6.90;89.30;;;;;;4996135;28;20057;-62
2023/01/09 07:03:47;;;;;;;0.55;0.50;;;7.00;89.30;;;;;;5000135;28;20064;-61
2023/01/09 07:06:13;;;;;;;0.68;0.30;;;7.00;89.10;;;;;;4999980;28;20096;-61
2023/01/09 07:08:38;;;;;;;0.73;0.35;;;7.10;88.80;;;;;;4998991;28;20047;-61
2023/01/09 07:11:04;;;;;;;0.80;0.35;;;7.10;88.60;;;;;;5000232;28;20472;-61
2023/01/09 07:13:30;;;;;;;0.28;0.20;;;7.10;88.30;;;;;;4998960;28;20047;-61
2023/01/09 07:15:55;;;;;;;1.13;0.28;;;7.10;88.00;;;;;;4999815;28;20034;-60
2023/01/09 07:18:21;;;;;;;0.88;0.28;;;7.10;87.80;;;;;;4999535;28;20118;-61
2023/01/09 07:20:47;;;;;;;0.30;0.30;;;7.20;87.70;;;;;;4999914;28;20489;-61
2023/01/09 07:23:14;;;;;;;0.82;0.43;;;7.20;87.60;;;;;;4998342;28;20042;-61
2023/01/09 07:25:41;;;;;;;0.65;0.47;;;7.20;87.30;;;;;;4998697;28;20493;-62
2023/01/09 07:28:07;;;;;;;0.95;0.30;;;7.20;87.10;;;;;;5000160;28;20061;-59
2023/01/09 07:30:32;;;;;;;0.20;0.17;;;7.10;86.90;;;;;;4998961;28;20528;-61
2023/01/09 07:32:58;;;;;;;1.15;0.30;;;7.20;86.90;;;;;;4999669;28;20046;-61
2023/01/09 07:35:24;;;;;;;0.40;0.28;;;7.10;86.40;;;;;;5000268;28;20030;-62
2023/01/09 07:37:49;;;;;;;1.70;0.40;;;7.10;86.40;;;;;;4999328;28;20034;-61
2023/01/09 07:40:15;;;;;;;0.52;0.40;;;7.10;86.30;;;;;;4998365;28;20038;-62
2023/01/09 07:42:41;;;;;;;0.75;0.32;;;7.10;86.10;;;;;;4998707;28;20104;-61
2023/01/09 07:45:07;;;;;;;1.40;0.40;;;7.10;86.00;;;;;;4998530;28;20034;-62
2023/01/09 07:47:33;;;;;;;1.00;0.30;;;7.10;86.00;;;;;;4999109;28;20112;-61
2023/01/09 07:49:59;;;;;;;3.63;0.50;;;7.10;86.10;;;;;;4998829;28;20493;-61
2023/01/09 07:52:24;;;;;;;0.38;0.28;;;7.00;86.00;;;;;;4999044;28;20596;-61
2023/01/09 07:54:50;;;;;;;0.25;0.20;;;7.00;85.70;;;;;;4997520;28;20121;-61
2023/01/09 07:57:15;;;;;;;0.40;0.30;;;7.00;85.60;;;;;;4993656;28;20037;-63
2023/01/09 07:59:41;;;;;;;1.50;0.25;;;7.00;85.50;;;;;;4998007;28;20069;-61
2023/01/09 08:02:08;;;;;;;1.85;0.43;;;7.00;85.40;;;;;;4998266;28;20502;-61
2023/01/09 08:04:33;;;;;;;1.13;0.30;;;6.90;85.20;;;;;;4997457;28;20033;-60
2023/01/09 08:06:59;;;;;;;1.52;0.30;;;6.90;85.20;;;;;;5000356;28;20038;-61
2023/01/09 08:09:25;;;;;;;1.60;0.30;;;6.90;85.20;;;;;;4998315;28;20195;-61
2023/01/09 08:11:50;;;;;;;0.40;0.28;;;6.90;85.00;;;;;;5000255;28;20058;-61
2023/01/09 08:14:16;;;;;;;2.22;0.40;;;6.90;85.00;;;;;;4996373;28;20034;-61
2023/01/09 08:16:41;;;;;;;1.52;0.40;;;6.90;85.00;;;;;;4997961;28;20504;-61
2023/01/09 08:19:07;;;;;;;0.82;0.35;;;6.90;84.90;;;;;;4997718;28;20038;-60
2023/01/09 08:21:33;;;;;;;2.50;0.40;;;6.90;84.80;;;;;;4998298;28;20112;-60
2023/01/09 08:23:58;;;;;;;3.78;0.55;;;6.90;84.40;;;;;;4998441;28;20030;-61
2023/01/09 08:26:24;;;;;;;1.40;0.30;;;6.90;84.10;;;;;;4997871;28;20053;-61
2023/01/09 08:28:49;;;;;;;1.85;0.40;;;6.90;84.10;;;;;;4997801;28;20026;-61
2023/01/09 08:31:15;;;;;;;1.83;0.50;;;6.90;84.10;;;;;;4997547;28;20113;-61
2023/01/09 08:33:41;;;;;;;1.08;0.30;;;6.90;84.10;;;;;;4997686;28;20409;-61
2023/01/09 08:36:07;;;;;;;2.00;0.70;;;6.90;84.10;;;;;;4997837;28;20030;-61
2023/01/09 08:38:32;;;;;;;2.08;1.10;;;6.90;84.00;;;;;;4996743;28;20550;-61
2023/01/09 08:40:58;;;;;;;3.22;0.57;;;6.90;84.00;;;;;;4999141;28;20049;-61
2023/01/09 08:49:02;;;;;;;3.28;0.70;;;7.00;83.60;;;;;;4998354;28;20068;-58
2023/01/09 08:51:28;;;;;;;2.85;0.63;;;6.90;83.80;;;;;;4997898;28;20046;-61
2023/01/09 08:53:53;;;;;;;5.40;0.90;;;6.90;83.80;;;;;;4997154;28;20080;-60
2023/01/09 08:56:19;;;;;;;1.63;0.70;;;7.00;84.10;;;;;;4997427;28;20041;-61
2023/01/09 08:58:45;;;;;;;2.60;0.68;;;6.90;84.00;;;;;;4997088;28;20042;-60
2023/01/09 09:01:10;;;;;;;3.10;0.50;;;7.00;84.00;;;;;;4996324;28;20042;-57
2023/01/09 09:03:36;;;;;;;3.80;0.63;;;7.00;84.00;;;;;;4995954;28;20125;-59
2023/01/09 09:06:01;;;;;;;3.45;0.63;;;7.00;84.10;;;;;;4998939;28;20034;-61
2023/01/09 09:08:27;;;;;;;4.50;0.65;;;7.00;84.00;;;;;;4997016;28;20121;-60
2023/01/09 09:10:53;;;;;;;4.13;0.50;;;7.00;84.00;;;;;;5000753;28;20416;-59
2023/01/09 09:13:18;;;;;;;1.48;0.60;;;7.00;83.90;;;;;;4999589;28;20038;-59
2023/01/09 09:15:44;;;;;;;3.00;0.90;;;7.00;84.10;;;;;;4997032;28;20030;-59
2023/01/09 09:18:09;;;;;;;4.70;1.38;;;7.00;84.10;;;;;;4997446;28;20050;-61
2023/01/09 09:20:37;;;;;;;0.95;0.60;;;7.10;84.20;;;;;;4999137;28;20034;-60
2023/01/09 09:23:03;;;;;;;3.33;0.70;;;7.10;84.30;;;;;;4998161;28;20938;-61
2023/01/09 09:25:29;;;;;;;2.90;0.77;;;7.10;84.40;;;;;;4999443;28;20034;-61
2023/01/09 09:27:55;;;;;;;2.17;0.60;;;7.10;84.50;;;;;;4998708;28;20042;-60
2023/01/09 09:30:21;;;;;;;2.00;0.95;;;7.10;84.50;;;;;;4998036;28;20045;-61
2023/01/09 09:32:48;;;;;;;1.33;0.40;;;7.10;84.50;;;;;;4999217;28;20117;-61
2023/01/09 09:35:14;;;;;;;1.75;0.40;;;7.10;84.50;;;;;;4999023;28;20052;-61
2023/01/09 09:37:39;;;;;;;3.55;0.40;;;7.10;84.40;;;;;;4997555;28;20038;-61
2023/01/09 09:40:06;;;;;;;3.33;0.35;;;7.20;84.40;;;;;;4997749;28;20089;-61
2023/01/09 09:46:17;;;;;;;2.15;0.68;;;7.20;84.00;;;;;;4997950;28;20037;-61
2023/01/09 09:48:58;;;;;;;1.75;0.40;;;7.20;84.90;;;;;;4997461;28;20022;-61
2023/01/09 09:51:36;;;;;;;1.08;0.30;;;7.30;84.00;;;;;;4999187;28;20038;-61
2023/01/09 09:54:08;;;;;;;2.38;0.47;;;7.30;83.80;;;;;;4998690;28;20052;-61
2023/01/09 09:56:42;;;;;;;1.38;0.80;;;7.40;84.00;;;;;;4997509;28;20112;-61
2023/01/09 09:59:17;;;;;;;0.95;0.60;;;7.30;83.70;;;;;;4994988;28;20519;-59
2023/01/09 10:01:48;;;;;;;0.93;0.60;;;7.30;83.60;;;;;;4998639;28;20057;-57
2023/01/09 10:04:17;;;;;;;1.13;0.52;;;7.40;83.70;;;;;;4997028;28;20042;-63
2023/01/09 10:06:53;;;;;;;2.72;0.70;;;7.40;83.60;;;;;;4997525;28;20038;-61
2023/01/09 10:09:28;;;;;;;3.20;0.77;;;7.40;83.60;;;;;;4997922;28;20066;-60
2023/01/09 10:12:15;;;;;;;4.30;0.98;;;7.50;83.50;;;;;;5000143;28;20041;-59
2023/01/09 10:14:40;;;;;;;1.80;1.02;;;7.50;83.70;;;;;;4997193;28;20035;-60
2023/01/09 10:17:26;;;;;;;1.63;1.00;;;7.50;83.20;;;;;;4996486;28;20541;-59
2023/01/09 10:20:18;;;;;;;3.38;0.60;;;7.60;82.00;;;;;;4961062;28;20044;-60
2023/01/09 10:23:10;;;;;;;0.93;0.65;;;7.60;82.70;;;;;;4997204;28;20030;-59
2023/01/09 10:25:44;;;;;;;2.38;0.50;;;7.70;82.20;;;;;;4998189;28;20030;-60
2023/01/09 10:28:31;;;;;;;2.53;0.50;;;7.70;82.40;;;;;;4996975;28;20101;-59
2023/01/09 10:31:28;;;;;;;4.25;0.70;;;7.70;81.70;;;;;;4997645;28;20100;-60
2023/01/09 10:34:06;;;;;;;2.05;0.38;;;7.70;81.90;;;;;;4999076;28;20038;-60
2023/01/09 10:36:59;;;;;;;2.78;0.52;;;7.80;81.20;;;;;;4998538;28;20540;-61
2023/01/09 10:39:47;;;;;;;2.15;0.38;;;7.80;80.80;;;;;;5002392;28;20045;-59
2023/01/09 10:42:20;;;;;;;2.90;0.30;;;7.80;80.20;;;;;;5002546;28;20042;-61
2023/01/09 10:45:14;;;;;;;2.38;0.38;;;7.80;80.70;;;;;;5002327;28;20041;-61
2023/01/09 10:47:42;;;;;;;3.00;0.32;;;7.90;80.60;;;;;;5002245;28;20034;-59
2023/01/09 10:50:19;;;;;;;4.45;0.80;;;7.90;80.80;;;;;;5001747;28;20284;-61
2023/01/09 10:52:47;;;;;;;3.13;0.50;;;7.90;81.00;;;;;;5002464;28;20084;-61
2023/01/09 10:55:34;;;;;;;1.20;0.28;;;7.90;80.60;;;;;;5002184;28;20510;-60
2023/01/09 10:58:13;;;;;;;1.73;0.45;;;8.00;80.60;;;;;;5002389;28;20045;-60
2023/01/09 11:00:39;;;;;;;1.92;0.50;;;8.00;79.20;;;;;;5001445;28;20096;-61
2023/01/09 11:03:09;;;;;;;2.25;0.30;;;8.00;79.90;;;;;;5001299;28;20041;-59
2023/01/09 11:05:35;;;;;;;3.20;0.43;;;8.10;80.10;;;;;;5001724;28;20088;-61
2023/01/09 11:08:05;;;;;;;2.13;0.50;;;8.10;80.10;;;;;;5001841;28;20456;-59
2023/01/09 11:10:46;;;;;;;2.83;0.52;;;8.20;79.80;;;;;;5002580;28;20042;-59
2023/01/09 11:13:18;;;;;;;1.67;0.32;;;8.20;78.70;;;;;;5001660;28;20943;-59
2023/01/09 11:15:44;;;;;;;2.08;0.40;;;8.20;79.60;;;;;;5002143;28;20072;-61
2023/01/09 11:18:23;;;;;;;4.50;0.32;;;8.30;79.50;;;;;;5001451;28;20085;-59
2023/01/09 11:20:49;;;;;;;2.08;0.70;;;8.40;79.10;;;;;;5001274;28;20038;-60
2023/01/09 11:23:30;;;;;;;2.90;0.57;;;8.40;79.60;;;;;;5001411;28;20030;-60
2023/01/09 11:25:59;;;;;;;4.85;0.40;;;8.50;78.40;;;;;;5001251;28;20045;-59
2023/01/09 11:28:25;;;;;;;1.00;0.30;;;8.60;79.40;;;;;;5001100;28;20062;-60
2023/01/09 11:31:01;;;;;;;3.30;0.57;;;8.60;79.10;;;;;;5001793;28;20069;-60
2023/01/09 11:33:34;;;;;;;3.97;0.50;;;8.70;77.90;;;;;;4999625;28;20064;-60
2023/01/09 11:36:09;;;;;;;2.08;0.50;;;8.80;77.90;;;;;;5000318;28;20776;-61
2023/01/09 11:38:54;;;;;;;2.80;0.60;;;8.80;77.20;;;;;;5000070;28;20034;-61
2023/01/09 11:41:33;;;;;;;3.42;0.93;;;8.80;76.10;;;;;;5000377;28;20044;-61
2023/01/09 11:44:01;;;;;;;3.10;1.10;;;8.80;75.80;;;;;;4999414;28;20095;-61
2023/01/09 11:46:40;;;;;;;2.92;0.60;;;8.80;77.20;;;;;;4999833;28;20040;-60
2023/01/09 11:49:27;;;;;;;4.53;0.73;;;8.80;77.20;;;;;;5000027;28;20362;-61
2023/01/09 11:52:16;;;;;;;3.15;0.65;;;8.80;76.90;;;;;;5001125;28;20030;-61
2023/01/09 11:54:55;;;;;;;2.70;0.75;;;8.80;75.60;;;;;;5000058;28;20041;-61
2023/01/09 11:57:22;;;;;;;6.47;0.88;;;8.80;77.10;;;;;;5000313;28;20057;-61
2023/01/09 11:59:48;;;;;;;3.22;0.52;;;8.90;77.30;;;;;;5000788;28;20042;-62
2023/01/09 12:02:52;;;;;;;1.77;0.80;;;8.90;77.00;;;;;;4997827;28;20501;-62
2023/01/09 12:05:20;;;;;;;2.97;0.93;;;8.90;76.20;;;;;;4978370;28;20082;-61
2023/01/09 12:08:06;;;;;;;1.95;0.82;;;9.00;76.30;;;;;;4999594;28;20046;-61
2023/01/09 12:11:10;;;;;;;3.47;0.95;;;9.00;75.50;;;;;;5001144;28;20038;-61
2023/01/09 12:13:36;;;;;;;2.42;0.65;;;9.00;75.50;;;;;;4985201;28;20572;-61
2023/01/09 12:16:18;;;;;;;1.63;0.52;;;9.00;75.70;;;;;;4999770;28;20409;-61
2023/01/09 12:19:01;;;;;;;2.30;0.75;;;9.00;75.70;;;;;;4999077;28;20030;-61
2023/01/09 12:21:56;;;;;;;1.52;0.40;;;9.00;75.60;;;;;;4999503;28;20084;-61
2023/01/09 12:24:36;;;;;;;1.10;0.50;;;9.00;74.90;;;;;;4977824;28;20547;-61
2023/01/09 12:27:11;;;;;;;2.50;0.68;;;9.00;75.70;;;;;;4998961;28;20555;-61
2023/01/09 12:30:18;;;;;;;4.32;0.50;;;9.00;75.30;;;;;;4999854;28;20559;-61
2023/01/09 12:33:05;;;;;;;3.92;0.38;;;9.10;74.40;;;;;;4998428;28;20092;-61
2023/01/09 12:35:53;;;;;;;1.80;0.50;;;9.10;75.50;;;;;;4998834;28;20042;-61
2023/01/09 12:38:29;;;;;;;3.45;0.60;;;9.10;74.60;;;;;;4999888;28;20129;-59
2023/01/09 12:41:16;;;;;;;2.45;0.50;;;9.10;75.60;;;;;;4999498;28;20041;-59
2023/01/09 12:43:48;;;;;;;2.47;0.55;;;9.10;75.00;;;;;;4999903;28;20174;-61
2023/01/09 12:46:25;;;;;;;4.03;0.55;;;9.20;74.60;;;;;;4998563;28;20034;-59
2023/01/09 12:49:21;;;;;;;2.70;0.50;;;9.20;74.60;;;;;;4998499;28;20085;-61
2023/01/09 12:52:11;;;;;;;2.03;0.60;;;9.20;73.70;;;;;;4999746;28;20031;-59
2023/01/09 12:54:50;;;;;;;1.33;0.40;;;9.20;74.30;;;;;;4998648;28;20035;-60
2023/01/09 12:57:28;;;;;;;3.63;0.93;;;9.20;74.00;;;;;;4999854;28;20035;-60
2023/01/09 12:59:59;;;;;;;2.40;0.50;;;9.20;74.20;;;;;;4999196;28;20291;-59
2023/01/09 13:02:34;;;;;;;1.63;0.47;;;9.20;74.70;;;;;;4999581;28;20295;-59
2023/01/09 13:05:01;;;;;;;1.38;0.20;;;9.20;74.60;;;;;;4998977;28;20034;-59
2023/01/09 13:07:39;;;;;;;1.77;0.35;;;9.20;74.70;;;;;;4999351;28;20045;-60
2023/01/09 13:10:32;;;;;;;2.00;0.50;;;9.20;74.20;;;;;;5000343;28;20031;-60
2023/01/09 13:13:05;;;;;;;2.35;0.40;;;9.20;74.00;;;;;;4999759;28;20026;-59
2023/01/09 13:15:51;;;;;;;2.95;0.47;;;9.20;74.50;;;;;;4999210;28;20041;-59
2023/01/09 13:18:34;;;;;;;4.22;0.95;;;9.20;74.20;;;;;;4999249;28;20521;-60
2023/01/09 13:21:00;;;;;;;1.95;0.55;;;9.20;73.90;;;;;;4999289;28;20168;-60
2023/01/09 13:23:35;;;;;;;1.17;0.40;;;9.20;74.60;;;;;;4999201;28;20038;-59
2023/01/09 13:26:10;;;;;;;0.90;0.80;;;9.20;74.20;;;;;;4998592;28;20053;-60
2023/01/09 13:28:51;;;;;;;1.20;0.70;;;9.20;74.00;;;;;;4996530;28;20037;-59